sensor_id;sensor_type;location;lat;lon;timestamp;P1;durP1;ratioP1;P2;durP2;ratioP2
67902;SDS011;54708;43.612;1.568;2023-04-25T00:02:10;3.90;;;3.03;;
67902;SDS011;54708;43.612;1.568;2023-04-25T00:04:35;4.88;;;3.25;;
67902;SDS011;54708;43.612;1.568;2023-04-25T00:07:02;4.60;;;2.80;;
67902;SDS011;54708;43.612;1.568;2023-04-25T00:09:28;5.90;;;3.28;;
67902;SDS011;54708;43.612;1.568;2023-04-25T00:11:53;4.55;;;2.60;;
67902;SDS011;54708;43.612;1.568;2023-04-25T00:14:19;5.95;;;2.42;;
67902;SDS011;54708;43.612;1.568;2023-04-25T00:16:44;4.35;;;2.47;;
67902;SDS011;54708;43.612;1.568;2023-04-25T00:19:10;3.80;;;2.58;;
67902;SDS011;54708;43.612;1.568;2023-04-25T00:21:35;2.17;;;1.83;;
67902;SDS011;54708;43.612;1.568;2023-04-25T00:24:02;2.83;;;2.42;;
67902;SDS011;54708;43.612;1.568;2023-04-25T00:26:28;3.92;;;2.10;;
67902;SDS011;54708;43.612;1.568;2023-04-25T00:28:53;2.72;;;2.00;;
67902;SDS011;54708;43.612;1.568;2023-04-25T00:31:19;4.63;;;1.95;;
67902;SDS011;54708;43.612;1.568;2023-04-25T00:33:44;2.20;;;1.75;;
67902;SDS011;54708;43.612;1.568;2023-04-25T00:36:10;2.22;;;1.77;;
67902;SDS011;54708;43.612;1.568;2023-04-25T00:38:36;4.35;;;2.05;;
67902;SDS011;54708;43.612;1.568;2023-04-25T00:41:03;3.15;;;2.22;;
67902;SDS011;54708;43.612;1.568;2023-04-25T00:43:30;2.90;;;1.85;;
67902;SDS011;54708;43.612;1.568;2023-04-25T00:45:57;4.57;;;1.88;;
67902;SDS011;54708;43.612;1.568;2023-04-25T00:48:25;3.15;;;2.15;;
67902;SDS011;54708;43.612;1.568;2023-04-25T00:50:54;2.30;;;2.10;;
67902;SDS011;54708;43.612;1.568;2023-04-25T00:53:23;3.28;;;2.40;;
67902;SDS011;54708;43.612;1.568;2023-04-25T00:55:49;3.15;;;1.90;;
67902;SDS011;54708;43.612;1.568;2023-04-25T00:58:16;1.85;;;1.75;;
67902;SDS011;54708;43.612;1.568;2023-04-25T01:00:42;3.50;;;2.22;;
67902;SDS011;54708;43.612;1.568;2023-04-25T01:03:10;2.45;;;2.20;;
67902;SDS011;54708;43.612;1.568;2023-04-25T01:05:36;3.38;;;2.03;;
67902;SDS011;54708;43.612;1.568;2023-04-25T01:08:02;2.25;;;2.05;;
67902;SDS011;54708;43.612;1.568;2023-04-25T01:10:27;2.92;;;2.38;;
67902;SDS011;54708;43.612;1.568;2023-04-25T01:12:53;2.53;;;2.33;;
67902;SDS011;54708;43.612;1.568;2023-04-25T01:15:18;3.28;;;2.50;;
67902;SDS011;54708;43.612;1.568;2023-04-25T01:17:44;4.43;;;2.97;;
67902;SDS011;54708;43.612;1.568;2023-04-25T01:20:10;3.20;;;2.08;;
67902;SDS011;54708;43.612;1.568;2023-04-25T01:22:36;2.55;;;2.25;;
67902;SDS011;54708;43.612;1.568;2023-04-25T01:25:01;2.40;;;2.15;;
67902;SDS011;54708;43.612;1.568;2023-04-25T01:27:27;3.72;;;2.05;;
67902;SDS011;54708;43.612;1.568;2023-04-25T01:29:54;3.58;;;2.10;;
67902;SDS011;54708;43.612;1.568;2023-04-25T01:32:19;1.70;;;1.60;;
67902;SDS011;54708;43.612;1.568;2023-04-25T01:34:46;2.55;;;2.03;;
67902;SDS011;54708;43.612;1.568;2023-04-25T01:37:11;2.58;;;2.00;;
67902;SDS011;54708;43.612;1.568;2023-04-25T01:39:37;3.25;;;2.30;;
67902;SDS011;54708;43.612;1.568;2023-04-25T01:42:02;4.07;;;2.20;;
67902;SDS011;54708;43.612;1.568;2023-04-25T01:44:28;2.38;;;2.10;;
67902;SDS011;54708;43.612;1.568;2023-04-25T01:46:53;2.83;;;2.10;;
67902;SDS011;54708;43.612;1.568;2023-04-25T01:49:19;3.65;;;2.65;;
67902;SDS011;54708;43.612;1.568;2023-04-25T01:51:44;1.92;;;1.73;;
67902;SDS011;54708;43.612;1.568;2023-04-25T01:54:10;1.88;;;1.77;;
67902;SDS011;54708;43.612;1.568;2023-04-25T01:56:36;1.85;;;1.60;;
67902;SDS011;54708;43.612;1.568;2023-04-25T01:59:04;2.47;;;2.25;;
67902;SDS011;54708;43.612;1.568;2023-04-25T02:01:30;2.28;;;2.10;;
67902;SDS011;54708;43.612;1.568;2023-04-25T02:03:56;4.07;;;3.10;;
67902;SDS011;54708;43.612;1.568;2023-04-25T02:06:21;4.18;;;3.60;;
67902;SDS011;54708;43.612;1.568;2023-04-25T02:08:46;4.30;;;3.85;;
67902;SDS011;54708;43.612;1.568;2023-04-25T02:11:12;5.60;;;4.53;;
67902;SDS011;54708;43.612;1.568;2023-04-25T02:13:37;5.68;;;5.07;;
67902;SDS011;54708;43.612;1.568;2023-04-25T02:16:03;4.78;;;3.80;;
67902;SDS011;54708;43.612;1.568;2023-04-25T02:18:28;4.15;;;3.75;;
67902;SDS011;54708;43.612;1.568;2023-04-25T02:20:54;5.85;;;3.17;;
67902;SDS011;54708;43.612;1.568;2023-04-25T02:23:19;2.92;;;2.63;;
67902;SDS011;54708;43.612;1.568;2023-04-25T02:25:45;2.72;;;2.50;;
67902;SDS011;54708;43.612;1.568;2023-04-25T02:28:10;2.67;;;2.47;;
67902;SDS011;54708;43.612;1.568;2023-04-25T02:30:36;2.63;;;2.42;;
67902;SDS011;54708;43.612;1.568;2023-04-25T02:33:01;3.10;;;2.72;;
67902;SDS011;54708;43.612;1.568;2023-04-25T02:35:27;5.13;;;3.53;;
67902;SDS011;54708;43.612;1.568;2023-04-25T02:37:52;3.55;;;3.25;;
67902;SDS011;54708;43.612;1.568;2023-04-25T02:40:18;3.55;;;2.80;;
67902;SDS011;54708;43.612;1.568;2023-04-25T02:42:43;11.05;;;3.67;;
67902;SDS011;54708;43.612;1.568;2023-04-25T02:45:10;2.88;;;2.67;;
67902;SDS011;54708;43.612;1.568;2023-04-25T02:47:36;5.50;;;3.10;;
67902;SDS011;54708;43.612;1.568;2023-04-25T02:50:01;2.95;;;2.15;;
67902;SDS011;54708;43.612;1.568;2023-04-25T02:52:27;2.72;;;2.20;;
67902;SDS011;54708;43.612;1.568;2023-04-25T02:54:52;2.33;;;1.95;;
67902;SDS011;54708;43.612;1.568;2023-04-25T02:57:18;4.68;;;2.00;;
67902;SDS011;54708;43.612;1.568;2023-04-25T02:59:43;1.65;;;1.40;;
67902;SDS011;54708;43.612;1.568;2023-04-25T03:02:09;1.50;;;1.40;;
67902;SDS011;54708;43.612;1.568;2023-04-25T03:04:34;2.70;;;2.13;;
67902;SDS011;54708;43.612;1.568;2023-04-25T03:07:00;1.30;;;1.20;;
67902;SDS011;54708;43.612;1.568;2023-04-25T03:09:26;4.68;;;1.13;;
67902;SDS011;54708;43.612;1.568;2023-04-25T03:11:51;0.70;;;0.70;;
67902;SDS011;54708;43.612;1.568;2023-04-25T03:14:17;1.20;;;0.90;;
67902;SDS011;54708;43.612;1.568;2023-04-25T03:16:42;1.23;;;0.82;;
67902;SDS011;54708;43.612;1.568;2023-04-25T03:19:07;1.38;;;0.70;;
67902;SDS011;54708;43.612;1.568;2023-04-25T03:21:33;1.50;;;0.93;;
67902;SDS011;54708;43.612;1.568;2023-04-25T03:24:00;0.60;;;0.60;;
67902;SDS011;54708;43.612;1.568;2023-04-25T03:26:27;1.95;;;0.70;;
67902;SDS011;54708;43.612;1.568;2023-04-25T03:28:52;2.45;;;0.90;;
67902;SDS011;54708;43.612;1.568;2023-04-25T03:31:18;0.90;;;0.73;;
67902;SDS011;54708;43.612;1.568;2023-04-25T03:33:43;0.85;;;0.80;;
67902;SDS011;54708;43.612;1.568;2023-04-25T03:36:09;1.83;;;0.60;;
67902;SDS011;54708;43.612;1.568;2023-04-25T03:38:35;1.45;;;0.65;;
67902;SDS011;54708;43.612;1.568;2023-04-25T03:41:01;0.50;;;0.50;;
67902;SDS011;54708;43.612;1.568;2023-04-25T03:43:26;1.52;;;1.42;;
67902;SDS011;54708;43.612;1.568;2023-04-25T03:45:52;0.70;;;0.70;;
67902;SDS011;54708;43.612;1.568;2023-04-25T03:48:17;1.13;;;0.90;;
67902;SDS011;54708;43.612;1.568;2023-04-25T03:50:42;1.20;;;0.90;;
67902;SDS011;54708;43.612;1.568;2023-04-25T03:53:08;0.70;;;0.70;;
67902;SDS011;54708;43.612;1.568;2023-04-25T03:55:33;2.88;;;0.82;;
67902;SDS011;54708;43.612;1.568;2023-04-25T03:57:59;0.85;;;0.85;;
67902;SDS011;54708;43.612;1.568;2023-04-25T04:00:24;1.10;;;1.00;;
67902;SDS011;54708;43.612;1.568;2023-04-25T04:02:50;1.08;;;0.90;;
67902;SDS011;54708;43.612;1.568;2023-04-25T04:05:15;1.60;;;1.08;;
67902;SDS011;54708;43.612;1.568;2023-04-25T04:07:41;1.00;;;0.90;;
67902;SDS011;54708;43.612;1.568;2023-04-25T04:10:08;1.08;;;1.00;;
67902;SDS011;54708;43.612;1.568;2023-04-25T04:12:34;1.70;;;0.70;;
67902;SDS011;54708;43.612;1.568;2023-04-25T04:14:59;0.98;;;0.98;;
67902;SDS011;54708;43.612;1.568;2023-04-25T04:17:25;0.98;;;0.90;;
67902;SDS011;54708;43.612;1.568;2023-04-25T04:19:50;0.75;;;0.75;;
67902;SDS011;54708;43.612;1.568;2023-04-25T04:22:16;1.63;;;1.10;;
67902;SDS011;54708;43.612;1.568;2023-04-25T04:24:41;0.82;;;0.82;;
67902;SDS011;54708;43.612;1.568;2023-04-25T04:27:11;1.95;;;1.23;;
67902;SDS011;54708;43.612;1.568;2023-04-25T04:29:37;0.65;;;0.65;;
67902;SDS011;54708;43.612;1.568;2023-04-25T04:32:03;1.15;;;1.15;;
67902;SDS011;54708;43.612;1.568;2023-04-25T04:34:28;3.67;;;1.10;;
67902;SDS011;54708;43.612;1.568;2023-04-25T04:36:54;3.55;;;1.02;;
67902;SDS011;54708;43.612;1.568;2023-04-25T04:39:20;1.00;;;1.00;;
67902;SDS011;54708;43.612;1.568;2023-04-25T04:41:45;1.75;;;1.10;;
67902;SDS011;54708;43.612;1.568;2023-04-25T04:44:11;3.35;;;1.40;;
67902;SDS011;54708;43.612;1.568;2023-04-25T04:46:37;1.40;;;1.30;;
67902;SDS011;54708;43.612;1.568;2023-04-25T04:49:07;2.42;;;1.02;;
67902;SDS011;54708;43.612;1.568;2023-04-25T04:51:36;2.53;;;1.08;;
67902;SDS011;54708;43.612;1.568;2023-04-25T04:54:02;1.63;;;1.42;;
67902;SDS011;54708;43.612;1.568;2023-04-25T04:56:28;1.23;;;1.17;;
67902;SDS011;54708;43.612;1.568;2023-04-25T04:58:56;1.10;;;1.10;;
67902;SDS011;54708;43.612;1.568;2023-04-25T05:01:25;1.48;;;1.38;;
67902;SDS011;54708;43.612;1.568;2023-04-25T05:03:51;1.30;;;1.20;;
67902;SDS011;54708;43.612;1.568;2023-04-25T05:06:17;1.15;;;1.05;;
67902;SDS011;54708;43.612;1.568;2023-04-25T05:08:43;2.67;;;1.58;;
67902;SDS011;54708;43.612;1.568;2023-04-25T05:11:09;1.30;;;1.20;;
67902;SDS011;54708;43.612;1.568;2023-04-25T05:13:35;5.45;;;1.42;;
67902;SDS011;54708;43.612;1.568;2023-04-25T05:16:00;1.35;;;1.20;;
67902;SDS011;54708;43.612;1.568;2023-04-25T05:18:25;1.58;;;1.27;;
67902;SDS011;54708;43.612;1.568;2023-04-25T05:20:51;1.95;;;1.05;;
67902;SDS011;54708;43.612;1.568;2023-04-25T05:23:16;3.22;;;1.27;;
67902;SDS011;54708;43.612;1.568;2023-04-25T05:25:42;1.20;;;1.10;;
67902;SDS011;54708;43.612;1.568;2023-04-25T05:28:07;1.40;;;1.30;;
67902;SDS011;54708;43.612;1.568;2023-04-25T05:30:33;2.85;;;1.30;;
67902;SDS011;54708;43.612;1.568;2023-04-25T05:32:59;3.38;;;1.45;;
67902;SDS011;54708;43.612;1.568;2023-04-25T05:35:25;2.83;;;1.10;;
67902;SDS011;54708;43.612;1.568;2023-04-25T05:37:50;3.25;;;1.60;;
67902;SDS011;54708;43.612;1.568;2023-04-25T05:40:16;1.73;;;1.55;;
67902;SDS011;54708;43.612;1.568;2023-04-25T05:42:41;1.63;;;1.40;;
67902;SDS011;54708;43.612;1.568;2023-04-25T05:45:07;1.75;;;1.35;;
67902;SDS011;54708;43.612;1.568;2023-04-25T05:47:32;1.48;;;1.38;;
67902;SDS011;54708;43.612;1.568;2023-04-25T05:49:58;1.70;;;1.60;;
67902;SDS011;54708;43.612;1.568;2023-04-25T05:52:23;2.55;;;1.45;;
67902;SDS011;54708;43.612;1.568;2023-04-25T05:54:49;3.03;;;1.40;;
67902;SDS011;54708;43.612;1.568;2023-04-25T05:57:24;1.92;;;1.30;;
67902;SDS011;54708;43.612;1.568;2023-04-25T05:59:51;4.75;;;1.40;;
67902;SDS011;54708;43.612;1.568;2023-04-25T06:02:17;1.83;;;1.67;;
67902;SDS011;54708;43.612;1.568;2023-04-25T06:04:43;1.60;;;1.50;;
67902;SDS011;54708;43.612;1.568;2023-04-25T06:14:54;2.22;;;1.50;;
67902;SDS011;54708;43.612;1.568;2023-04-25T06:17:20;1.83;;;1.70;;
67902;SDS011;54708;43.612;1.568;2023-04-25T06:19:45;1.58;;;1.48;;
67902;SDS011;54708;43.612;1.568;2023-04-25T06:22:11;3.88;;;1.60;;
67902;SDS011;54708;43.612;1.568;2023-04-25T06:24:36;3.13;;;1.42;;
67902;SDS011;54708;43.612;1.568;2023-04-25T06:27:07;1.65;;;1.55;;
67902;SDS011;54708;43.612;1.568;2023-04-25T06:29:33;2.47;;;1.70;;
67902;SDS011;54708;43.612;1.568;2023-04-25T06:39:49;2.15;;;1.98;;
67902;SDS011;54708;43.612;1.568;2023-04-25T06:44:51;2.08;;;1.75;;
67902;SDS011;54708;43.612;1.568;2023-04-25T06:47:18;1.30;;;1.20;;
67902;SDS011;54708;43.612;1.568;2023-04-25T06:49:45;1.13;;;1.13;;
67902;SDS011;54708;43.612;1.568;2023-04-25T06:52:10;3.03;;;1.38;;
67902;SDS011;54708;43.612;1.568;2023-04-25T06:54:35;1.33;;;1.20;;
67902;SDS011;54708;43.612;1.568;2023-04-25T06:57:01;2.50;;;1.83;;
67902;SDS011;54708;43.612;1.568;2023-04-25T07:12:22;1.83;;;1.25;;
67902;SDS011;54708;43.612;1.568;2023-04-25T07:14:48;0.50;;;0.50;;
67902;SDS011;54708;43.612;1.568;2023-04-25T07:17:13;0.60;;;0.60;;
67902;SDS011;54708;43.612;1.568;2023-04-25T07:19:42;0.68;;;0.68;;
67902;SDS011;54708;43.612;1.568;2023-04-25T07:22:08;0.47;;;0.40;;
67902;SDS011;54708;43.612;1.568;2023-04-25T07:24:33;0.50;;;0.50;;
67902;SDS011;54708;43.612;1.568;2023-04-25T07:26:59;0.40;;;0.40;;
67902;SDS011;54708;43.612;1.568;2023-04-25T07:29:26;0.43;;;0.38;;
67902;SDS011;54708;43.612;1.568;2023-04-25T07:31:51;1.60;;;0.50;;
67902;SDS011;54708;43.612;1.568;2023-04-25T07:34:18;0.40;;;0.40;;
67902;SDS011;54708;43.612;1.568;2023-04-25T07:36:43;0.47;;;0.47;;
67902;SDS011;54708;43.612;1.568;2023-04-25T07:39:08;3.20;;;0.45;;
67902;SDS011;54708;43.612;1.568;2023-04-25T07:41:34;0.50;;;0.50;;
67902;SDS011;54708;43.612;1.568;2023-04-25T07:43:59;0.77;;;0.60;;
67902;SDS011;54708;43.612;1.568;2023-04-25T07:46:28;0.30;;;0.30;;
67902;SDS011;54708;43.612;1.568;2023-04-25T07:48:53;1.95;;;0.60;;
67902;SDS011;54708;43.612;1.568;2023-04-25T07:51:19;0.40;;;0.40;;
67902;SDS011;54708;43.612;1.568;2023-04-25T07:53:45;0.60;;;0.60;;
67902;SDS011;54708;43.612;1.568;2023-04-25T07:56:11;1.75;;;0.50;;
67902;SDS011;54708;43.612;1.568;2023-04-25T07:58:37;0.47;;;0.35;;
67902;SDS011;54708;43.612;1.568;2023-04-25T08:01:02;0.82;;;0.50;;
67902;SDS011;54708;43.612;1.568;2023-04-25T08:03:28;2.70;;;0.90;;
67902;SDS011;54708;43.612;1.568;2023-04-25T08:05:53;1.83;;;0.43;;
67902;SDS011;54708;43.612;1.568;2023-04-25T08:08:18;1.00;;;0.50;;
67902;SDS011;54708;43.612;1.568;2023-04-25T08:10:44;2.40;;;0.40;;
67902;SDS011;54708;43.612;1.568;2023-04-25T08:13:09;1.23;;;0.40;;
67902;SDS011;54708;43.612;1.568;2023-04-25T08:15:35;0.32;;;0.32;;
67902;SDS011;54708;43.612;1.568;2023-04-25T08:18:00;0.60;;;0.60;;
67902;SDS011;54708;43.612;1.568;2023-04-25T08:20:25;1.10;;;0.40;;
67902;SDS011;54708;43.612;1.568;2023-04-25T08:22:51;0.40;;;0.40;;
67902;SDS011;54708;43.612;1.568;2023-04-25T08:25:16;0.73;;;0.40;;
67902;SDS011;54708;43.612;1.568;2023-04-25T08:27:42;0.50;;;0.50;;
67902;SDS011;54708;43.612;1.568;2023-04-25T08:30:08;0.40;;;0.40;;
67902;SDS011;54708;43.612;1.568;2023-04-25T08:32:33;0.40;;;0.40;;
67902;SDS011;54708;43.612;1.568;2023-04-25T08:34:59;0.73;;;0.40;;
67902;SDS011;54708;43.612;1.568;2023-04-25T08:37:24;1.85;;;0.40;;
67902;SDS011;54708;43.612;1.568;2023-04-25T08:39:50;2.33;;;1.60;;
67902;SDS011;54708;43.612;1.568;2023-04-25T08:42:18;2.72;;;0.60;;
67902;SDS011;54708;43.612;1.568;2023-04-25T08:44:45;0.40;;;0.40;;
67902;SDS011;54708;43.612;1.568;2023-04-25T08:47:11;1.85;;;0.40;;
67902;SDS011;54708;43.612;1.568;2023-04-25T08:49:36;1.35;;;0.40;;
67902;SDS011;54708;43.612;1.568;2023-04-25T08:52:03;0.40;;;0.40;;
67902;SDS011;54708;43.612;1.568;2023-04-25T08:54:31;0.40;;;0.40;;
67902;SDS011;54708;43.612;1.568;2023-04-25T08:56:57;0.70;;;0.70;;
67902;SDS011;54708;43.612;1.568;2023-04-25T08:59:27;0.40;;;0.40;;
67902;SDS011;54708;43.612;1.568;2023-04-25T09:01:53;0.50;;;0.50;;
67902;SDS011;54708;43.612;1.568;2023-04-25T09:04:19;1.35;;;0.60;;
67902;SDS011;54708;43.612;1.568;2023-04-25T09:06:45;0.40;;;0.40;;
67902;SDS011;54708;43.612;1.568;2023-04-25T09:09:12;0.50;;;0.40;;
67902;SDS011;54708;43.612;1.568;2023-04-25T09:11:37;2.47;;;0.52;;
67902;SDS011;54708;43.612;1.568;2023-04-25T09:14:17;0.50;;;0.50;;
67902;SDS011;54708;43.612;1.568;2023-04-25T09:19:32;0.60;;;0.60;;
67902;SDS011;54708;43.612;1.568;2023-04-25T09:22:03;0.60;;;0.45;;
67902;SDS011;54708;43.612;1.568;2023-04-25T09:27:11;11.70;;;0.73;;
67902;SDS011;54708;43.612;1.568;2023-04-25T09:29:38;0.52;;;0.40;;
67902;SDS011;54708;43.612;1.568;2023-04-25T09:34:51;0.60;;;0.50;;
67902;SDS011;54708;43.612;1.568;2023-04-25T09:37:20;3.70;;;0.50;;
67902;SDS011;54708;43.612;1.568;2023-04-25T09:39:54;1.08;;;0.60;;
67902;SDS011;54708;43.612;1.568;2023-04-25T09:42:24;0.50;;;0.50;;
67902;SDS011;54708;43.612;1.568;2023-04-25T09:45:08;0.60;;;0.60;;
67902;SDS011;54708;43.612;1.568;2023-04-25T09:47:38;1.92;;;0.65;;
67902;SDS011;54708;43.612;1.568;2023-04-25T09:50:04;0.57;;;0.57;;
67902;SDS011;54708;43.612;1.568;2023-04-25T09:55:45;1.23;;;1.02;;
67902;SDS011;54708;43.612;1.568;2023-04-25T09:58:11;0.95;;;0.70;;
67902;SDS011;54708;43.612;1.568;2023-04-25T10:00:41;0.75;;;0.75;;
67902;SDS011;54708;43.612;1.568;2023-04-25T10:05:41;1.48;;;1.38;;
67902;SDS011;54708;43.612;1.568;2023-04-25T10:10:43;0.52;;;0.50;;
67902;SDS011;54708;43.612;1.568;2023-04-25T10:13:13;0.60;;;0.60;;
67902;SDS011;54708;43.612;1.568;2023-04-25T10:15:40;0.60;;;0.60;;
67902;SDS011;54708;43.612;1.568;2023-04-25T10:20:41;0.50;;;0.50;;
67902;SDS011;54708;43.612;1.568;2023-04-25T10:23:09;3.70;;;0.93;;
67902;SDS011;54708;43.612;1.568;2023-04-25T10:25:40;0.50;;;0.50;;
67902;SDS011;54708;43.612;1.568;2023-04-25T10:28:06;0.63;;;0.50;;
67902;SDS011;54708;43.612;1.568;2023-04-25T10:30:33;1.95;;;0.50;;
67902;SDS011;54708;43.612;1.568;2023-04-25T10:38:20;0.50;;;0.50;;
67902;SDS011;54708;43.612;1.568;2023-04-25T10:45:59;0.63;;;0.43;;
67902;SDS011;54708;43.612;1.568;2023-04-25T10:48:29;2.78;;;0.70;;
67902;SDS011;54708;43.612;1.568;2023-04-25T10:53:33;1.65;;;0.95;;
67902;SDS011;54708;43.612;1.568;2023-04-25T10:55:59;1.80;;;1.70;;
67902;SDS011;54708;43.612;1.568;2023-04-25T10:58:25;1.90;;;1.10;;
67902;SDS011;54708;43.612;1.568;2023-04-25T11:03:29;0.98;;;0.50;;
67902;SDS011;54708;43.612;1.568;2023-04-25T11:05:55;1.17;;;0.57;;
67902;SDS011;54708;43.612;1.568;2023-04-25T11:08:35;0.68;;;0.68;;
67902;SDS011;54708;43.612;1.568;2023-04-25T11:11:11;0.70;;;0.57;;
67902;SDS011;54708;43.612;1.568;2023-04-25T11:13:37;2.17;;;0.90;;
67902;SDS011;54708;43.612;1.568;2023-04-25T11:16:03;1.15;;;0.80;;
67902;SDS011;54708;43.612;1.568;2023-04-25T11:18:32;2.35;;;0.70;;
67902;SDS011;54708;43.612;1.568;2023-04-25T11:20:59;1.42;;;0.70;;
67902;SDS011;54708;43.612;1.568;2023-04-25T11:25:58;4.20;;;1.42;;
67902;SDS011;54708;43.612;1.568;2023-04-25T11:31:02;0.60;;;0.60;;
67902;SDS011;54708;43.612;1.568;2023-04-25T11:33:27;0.43;;;0.43;;
67902;SDS011;54708;43.612;1.568;2023-04-25T11:35:54;0.50;;;0.50;;
67902;SDS011;54708;43.612;1.568;2023-04-25T11:38:23;0.50;;;0.47;;
67902;SDS011;54708;43.612;1.568;2023-04-25T11:40:50;1.15;;;0.50;;
67902;SDS011;54708;43.612;1.568;2023-04-25T11:43:17;0.43;;;0.40;;
67902;SDS011;54708;43.612;1.568;2023-04-25T11:45:45;0.43;;;0.40;;
67902;SDS011;54708;43.612;1.568;2023-04-25T11:48:12;2.92;;;0.40;;
67902;SDS011;54708;43.612;1.568;2023-04-25T11:50:38;0.40;;;0.40;;
67902;SDS011;54708;43.612;1.568;2023-04-25T11:53:04;0.77;;;0.77;;
67902;SDS011;54708;43.612;1.568;2023-04-25T11:55:31;0.70;;;0.70;;
67902;SDS011;54708;43.612;1.568;2023-04-25T11:57:56;0.40;;;0.40;;
67902;SDS011;54708;43.612;1.568;2023-04-25T12:00:25;0.63;;;0.63;;
67902;SDS011;54708;43.612;1.568;2023-04-25T12:02:55;0.50;;;0.50;;
67902;SDS011;54708;43.612;1.568;2023-04-25T12:05:26;0.50;;;0.50;;
67902;SDS011;54708;43.612;1.568;2023-04-25T12:07:53;0.60;;;0.60;;
67902;SDS011;54708;43.612;1.568;2023-04-25T12:10:18;1.13;;;0.80;;
67902;SDS011;54708;43.612;1.568;2023-04-25T12:12:45;0.95;;;0.80;;
67902;SDS011;54708;43.612;1.568;2023-04-25T12:15:11;0.73;;;0.73;;
67902;SDS011;54708;43.612;1.568;2023-04-25T12:17:44;0.60;;;0.60;;
67902;SDS011;54708;43.612;1.568;2023-04-25T12:20:17;1.85;;;1.15;;
67902;SDS011;54708;43.612;1.568;2023-04-25T12:22:45;0.52;;;0.52;;
67902;SDS011;54708;43.612;1.568;2023-04-25T12:25:13;0.93;;;0.93;;
67902;SDS011;54708;43.612;1.568;2023-04-25T12:27:39;0.73;;;0.73;;
67902;SDS011;54708;43.612;1.568;2023-04-25T12:30:09;1.95;;;0.80;;
67902;SDS011;54708;43.612;1.568;2023-04-25T12:32:35;2.05;;;0.70;;
67902;SDS011;54708;43.612;1.568;2023-04-25T12:35:02;0.85;;;0.85;;
67902;SDS011;54708;43.612;1.568;2023-04-25T12:37:28;2.58;;;1.00;;
67902;SDS011;54708;43.612;1.568;2023-04-25T12:39:54;1.48;;;0.70;;
67902;SDS011;54708;43.612;1.568;2023-04-25T12:42:19;0.98;;;0.60;;
67902;SDS011;54708;43.612;1.568;2023-04-25T12:44:45;1.20;;;0.95;;
67902;SDS011;54708;43.612;1.568;2023-04-25T12:47:11;1.23;;;0.90;;
67902;SDS011;54708;43.612;1.568;2023-04-25T12:49:36;2.22;;;2.03;;
67902;SDS011;54708;43.612;1.568;2023-04-25T12:52:02;3.03;;;1.77;;
67902;SDS011;54708;43.612;1.568;2023-04-25T12:54:28;2.97;;;1.85;;
67902;SDS011;54708;43.612;1.568;2023-04-25T12:56:53;2.88;;;1.80;;
67902;SDS011;54708;43.612;1.568;2023-04-25T12:59:19;3.17;;;1.90;;
67902;SDS011;54708;43.612;1.568;2023-04-25T13:01:46;4.50;;;2.13;;
67902;SDS011;54708;43.612;1.568;2023-04-25T13:04:11;1.20;;;1.10;;
67902;SDS011;54708;43.612;1.568;2023-04-25T13:06:37;1.80;;;1.20;;
67902;SDS011;54708;43.612;1.568;2023-04-25T13:09:02;2.10;;;1.88;;
67902;SDS011;54708;43.612;1.568;2023-04-25T13:11:28;3.05;;;1.92;;
67902;SDS011;54708;43.612;1.568;2023-04-25T13:13:53;1.25;;;1.10;;
67902;SDS011;54708;43.612;1.568;2023-04-25T13:16:20;0.95;;;0.90;;
67902;SDS011;54708;43.612;1.568;2023-04-25T13:18:48;0.80;;;0.80;;
67902;SDS011;54708;43.612;1.568;2023-04-25T13:21:13;1.70;;;1.13;;
67902;SDS011;54708;43.612;1.568;2023-04-25T13:23:39;2.72;;;1.40;;
67902;SDS011;54708;43.612;1.568;2023-04-25T13:26:06;1.20;;;1.02;;
67902;SDS011;54708;43.612;1.568;2023-04-25T13:28:32;1.55;;;0.95;;
67902;SDS011;54708;43.612;1.568;2023-04-25T13:30:57;1.20;;;0.88;;
67902;SDS011;54708;43.612;1.568;2023-04-25T13:33:23;1.33;;;0.90;;
67902;SDS011;54708;43.612;1.568;2023-04-25T13:35:48;1.33;;;0.65;;
67902;SDS011;54708;43.612;1.568;2023-04-25T13:38:22;0.90;;;0.90;;
67902;SDS011;54708;43.612;1.568;2023-04-25T13:40:49;0.77;;;0.75;;
67902;SDS011;54708;43.612;1.568;2023-04-25T13:43:15;2.92;;;1.13;;
67902;SDS011;54708;43.612;1.568;2023-04-25T13:45:40;1.35;;;1.10;;
67902;SDS011;54708;43.612;1.568;2023-04-25T13:48:06;1.25;;;1.00;;
67902;SDS011;54708;43.612;1.568;2023-04-25T13:50:31;0.70;;;0.63;;
67902;SDS011;54708;43.612;1.568;2023-04-25T13:52:57;0.70;;;0.70;;
67902;SDS011;54708;43.612;1.568;2023-04-25T13:55:22;0.80;;;0.80;;
67902;SDS011;54708;43.612;1.568;2023-04-25T13:57:47;0.90;;;0.80;;
67902;SDS011;54708;43.612;1.568;2023-04-25T14:00:13;1.27;;;1.00;;
67902;SDS011;54708;43.612;1.568;2023-04-25T14:02:39;5.38;;;3.08;;
67902;SDS011;54708;43.612;1.568;2023-04-25T14:05:04;2.97;;;2.40;;
67902;SDS011;54708;43.612;1.568;2023-04-25T14:07:30;1.67;;;1.58;;
67902;SDS011;54708;43.612;1.568;2023-04-25T14:09:56;1.73;;;1.25;;
67902;SDS011;54708;43.612;1.568;2023-04-25T14:12:24;1.42;;;0.93;;
67902;SDS011;54708;43.612;1.568;2023-04-25T14:14:50;1.67;;;1.58;;
67902;SDS011;54708;43.612;1.568;2023-04-25T14:17:15;1.15;;;1.05;;
67902;SDS011;54708;43.612;1.568;2023-04-25T14:19:41;1.55;;;1.45;;
67902;SDS011;54708;43.612;1.568;2023-04-25T14:22:10;2.25;;;0.75;;
67902;SDS011;54708;43.612;1.568;2023-04-25T14:24:35;2.95;;;1.00;;
67902;SDS011;54708;43.612;1.568;2023-04-25T14:27:01;2.15;;;0.90;;
67902;SDS011;54708;43.612;1.568;2023-04-25T14:29:26;1.23;;;1.10;;
67902;SDS011;54708;43.612;1.568;2023-04-25T14:31:52;1.30;;;1.20;;
67902;SDS011;54708;43.612;1.568;2023-04-25T14:34:18;2.38;;;1.08;;
67902;SDS011;54708;43.612;1.568;2023-04-25T14:36:43;6.97;;;1.23;;
67902;SDS011;54708;43.612;1.568;2023-04-25T14:39:09;2.05;;;0.93;;
67902;SDS011;54708;43.612;1.568;2023-04-25T14:41:35;2.28;;;1.05;;
67902;SDS011;54708;43.612;1.568;2023-04-25T14:44:00;1.02;;;1.00;;
67902;SDS011;54708;43.612;1.568;2023-04-25T14:46:26;5.60;;;1.48;;
67902;SDS011;54708;43.612;1.568;2023-04-25T14:48:51;1.65;;;1.20;;
67902;SDS011;54708;43.612;1.568;2023-04-25T14:51:17;1.23;;;1.13;;
67902;SDS011;54708;43.612;1.568;2023-04-25T14:53:42;1.00;;;1.00;;
67902;SDS011;54708;43.612;1.568;2023-04-25T14:56:08;0.95;;;0.95;;
67902;SDS011;54708;43.612;1.568;2023-04-25T14:58:33;1.00;;;1.00;;
67902;SDS011;54708;43.612;1.568;2023-04-25T15:00:59;1.67;;;1.58;;
67902;SDS011;54708;43.612;1.568;2023-04-25T15:03:25;2.00;;;1.42;;
67902;SDS011;54708;43.612;1.568;2023-04-25T15:05:50;1.30;;;1.20;;
67902;SDS011;54708;43.612;1.568;2023-04-25T15:08:16;1.63;;;1.27;;
67902;SDS011;54708;43.612;1.568;2023-04-25T15:10:42;2.70;;;1.00;;
67902;SDS011;54708;43.612;1.568;2023-04-25T15:13:08;0.95;;;0.95;;
67902;SDS011;54708;43.612;1.568;2023-04-25T15:15:35;2.88;;;1.10;;
67902;SDS011;54708;43.612;1.568;2023-04-25T15:18:01;1.50;;;1.30;;
67902;SDS011;54708;43.612;1.568;2023-04-25T15:20:27;3.80;;;2.05;;
67902;SDS011;54708;43.612;1.568;2023-04-25T15:22:52;1.45;;;1.35;;
67902;SDS011;54708;43.612;1.568;2023-04-25T15:25:18;2.60;;;1.30;;
67902;SDS011;54708;43.612;1.568;2023-04-25T15:27:44;1.40;;;1.30;;
67902;SDS011;54708;43.612;1.568;2023-04-25T15:30:12;1.98;;;1.67;;
67902;SDS011;54708;43.612;1.568;2023-04-25T15:32:40;2.17;;;1.45;;
67902;SDS011;54708;43.612;1.568;2023-04-25T15:35:05;1.77;;;1.67;;
67902;SDS011;54708;43.612;1.568;2023-04-25T15:37:32;2.28;;;2.03;;
67902;SDS011;54708;43.612;1.568;2023-04-25T15:40:02;1.58;;;1.50;;
67902;SDS011;54708;43.612;1.568;2023-04-25T15:42:38;1.52;;;1.42;;
67902;SDS011;54708;43.612;1.568;2023-04-25T15:45:05;1.80;;;1.60;;
67902;SDS011;54708;43.612;1.568;2023-04-25T15:47:31;1.58;;;1.42;;
67902;SDS011;54708;43.612;1.568;2023-04-25T15:49:58;3.50;;;1.80;;
67902;SDS011;54708;43.612;1.568;2023-04-25T15:52:23;2.15;;;2.05;;
67902;SDS011;54708;43.612;1.568;2023-04-25T15:54:49;2.10;;;1.90;;